Time;durP1;ratioP1;P1;durP2;ratioP2;P2;SDS_P1;SDS_P2;PMS_P1;PMS_P2;Temp;Humidity;BMP_temperature;BMP_pressure;BME280_temperature;BME280_humidity;BME280_pressure;Samples;Min_cycle;Max_cycle;Signal;HPM_P1;HPM_P2
2022/12/11 00:00:48;;;;;;;96.05;29.67;;;-0.10;99.90;;;;;;4918124;29;20125;-80
2022/12/11 00:03:14;;;;;;;102.78;28.33;;;0.00;99.90;;;;;;4913718;29;20058;-80
2022/12/11 00:05:40;;;;;;;92.47;29.17;;;-0.10;99.90;;;;;;4896761;29;20490;-79
2022/12/11 00:08:06;;;;;;;86.93;29.00;;;0.00;99.90;;;;;;4903365;29;20047;-80
2022/12/11 00:10:32;;;;;;;98.00;28.40;;;-0.10;99.90;;;;;;4899378;29;20067;-79
2022/12/11 00:12:58;;;;;;;87.32;27.67;;;0.00;99.90;;;;;;4913565;29;20415;-80
2022/12/11 00:15:23;;;;;;;102.07;29.05;;;0.00;99.90;;;;;;4913436;29;20047;-80
2022/12/11 00:17:49;;;;;;;101.38;29.63;;;0.00;99.90;;;;;;4913705;29;20039;-78
2022/12/11 00:20:15;;;;;;;82.82;27.83;;;0.00;99.90;;;;;;4910161;29;20411;-80
2022/12/11 00:22:40;;;;;;;85.72;28.15;;;0.10;99.90;;;;;;4901218;29;20040;-80
2022/12/11 00:25:07;;;;;;;77.97;28.23;;;0.00;99.90;;;;;;4912980;29;20046;-80
2022/12/11 00:27:32;;;;;;;94.35;28.95;;;0.00;99.90;;;;;;4925001;29;20043;-80
2022/12/11 00:29:58;;;;;;;104.57;31.90;;;0.10;99.90;;;;;;4909751;29;20062;-79
2022/12/11 00:32:24;;;;;;;103.78;29.95;;;0.00;99.90;;;;;;4900849;29;20050;-79
2022/12/11 00:34:49;;;;;;;96.20;31.23;;;0.10;99.90;;;;;;4901560;29;20040;-80
2022/12/11 00:37:15;;;;;;;102.13;30.77;;;0.10;99.90;;;;;;4898535;29;20131;-80
2022/12/11 00:39:40;;;;;;;97.18;29.08;;;0.10;99.90;;;;;;4916843;29;20036;-80
2022/12/11 00:42:07;;;;;;;102.93;31.17;;;0.10;99.90;;;;;;4893440;29;20892;-79
2022/12/11 00:44:32;;;;;;;112.53;30.17;;;0.10;99.90;;;;;;4917590;29;20047;-80
2022/12/11 00:46:58;;;;;;;98.05;30.27;;;0.10;99.90;;;;;;4910752;29;20410;-78
2022/12/11 00:49:24;;;;;;;86.53;30.35;;;0.10;99.90;;;;;;4894932;29;20044;-80
2022/12/11 00:51:49;;;;;;;94.22;29.85;;;0.10;99.90;;;;;;4909963;29;20090;-80
2022/12/11 00:54:15;;;;;;;96.03;30.85;;;0.20;99.90;;;;;;4898341;29;20040;-79
2022/12/11 00:56:41;;;;;;;98.50;29.95;;;0.20;99.90;;;;;;4913440;29;20757;-80
2022/12/11 00:59:06;;;;;;;98.43;29.52;;;0.20;99.90;;;;;;4913709;29;20034;-80
2022/12/11 01:01:32;;;;;;;97.07;28.77;;;0.10;99.90;;;;;;4912420;29;20043;-80
2022/12/11 01:03:58;;;;;;;101.90;28.30;;;0.10;99.90;;;;;;4917622;29;20581;-80
2022/12/11 01:06:25;;;;;;;85.30;26.58;;;0.20;99.90;;;;;;4910243;29;20043;-80
2022/12/11 01:11:36;;;;;;;81.47;26.20;;;0.10;99.90;;;;;;4909513;29;20047;-79
2022/12/11 01:14:01;;;;;;;88.22;26.40;;;0.20;99.90;;;;;;4912887;29;20130;-80
2022/12/11 01:16:27;;;;;;;94.15;28.05;;;0.30;99.90;;;;;;4896182;29;20123;-79
2022/12/11 01:18:52;;;;;;;79.15;26.17;;;0.30;99.90;;;;;;4913617;29;20059;-80
2022/12/11 01:21:18;;;;;;;102.93;28.23;;;0.30;99.90;;;;;;4911755;29;20050;-78
2022/12/11 01:23:43;;;;;;;87.53;27.35;;;0.20;99.90;;;;;;4923805;29;20039;-80
2022/12/11 01:26:12;;;;;;;81.55;25.70;;;0.20;99.90;;;;;;4910501;29;20118;-80
2022/12/11 01:28:38;;;;;;;86.63;26.90;;;0.30;99.90;;;;;;4915480;29;20048;-78
2022/12/11 01:31:13;;;;;;;88.32;26.50;;;0.30;99.90;;;;;;4896692;29;20067;-79
2022/12/11 01:33:39;;;;;;;95.75;27.30;;;0.30;99.90;;;;;;4909199;29;20046;-79
2022/12/11 01:36:13;;;;;;;82.28;26.23;;;0.20;99.90;;;;;;4900399;29;20035;-80
2022/12/11 01:38:39;;;;;;;90.78;28.83;;;0.30;99.90;;;;;;4917328;29;20039;-79
2022/12/11 01:41:05;;;;;;;87.88;27.60;;;0.30;99.90;;;;;;4914470;29;20508;-80
2022/12/11 01:43:30;;;;;;;86.53;27.88;;;0.30;99.90;;;;;;4912495;29;20095;-79
2022/12/11 01:45:56;;;;;;;92.65;29.42;;;0.40;99.90;;;;;;4900214;29;20398;-78
2022/12/11 01:48:27;;;;;;;96.70;27.63;;;0.40;99.90;;;;;;4913430;29;20042;-79
2022/12/11 01:50:56;;;;;;;78.97;26.30;;;0.40;99.90;;;;;;4927107;29;20087;-79
2022/12/11 01:53:30;;;;;;;71.22;24.83;;;0.40;99.90;;;;;;4914116;29;20040;-80
2022/12/11 01:55:58;;;;;;;87.75;26.88;;;0.40;99.90;;;;;;4897651;29;20075;-80
2022/12/11 01:58:29;;;;;;;78.20;26.10;;;0.40;99.90;;;;;;4893191;29;20115;-79
2022/12/11 02:00:55;;;;;;;76.53;25.70;;;0.40;99.90;;;;;;4900431;29;20044;-80
2022/12/11 02:03:21;;;;;;;77.93;24.30;;;0.40;99.90;;;;;;4921008;29;20036;-79
2022/12/11 02:05:47;;;;;;;83.75;26.77;;;0.40;99.90;;;;;;4897306;29;20514;-79
2022/12/11 02:08:13;;;;;;;77.25;24.60;;;0.40;99.90;;;;;;4909770;29;20043;-79
2022/12/11 02:11:03;;;;;;;71.97;23.92;;;0.40;99.90;;;;;;4912565;29;20040;-80
2022/12/11 02:13:45;;;;;;;74.47;22.95;;;0.40;99.90;;;;;;4910299;29;20058;-80
2022/12/11 02:16:25;;;;;;;75.95;22.73;;;0.40;99.90;;;;;;4910837;29;20039;-80
2022/12/11 02:19:06;;;;;;;83.22;24.40;;;0.50;99.90;;;;;;4927376;29;20040;-80
2022/12/11 02:21:48;;;;;;;64.65;22.20;;;0.50;99.90;;;;;;4911028;29;20036;-80
2022/12/11 02:24:19;;;;;;;77.40;24.80;;;0.50;99.90;;;;;;4920738;29;20050;-78
2022/12/11 02:26:51;;;;;;;76.07;23.35;;;0.50;99.90;;;;;;4915416;29;20131;-80
2022/12/11 02:29:35;;;;;;;73.43;24.90;;;0.50;99.90;;;;;;4913678;29;20044;-80
2022/12/11 02:32:16;;;;;;;73.10;22.63;;;0.50;99.90;;;;;;4914937;29;20047;-80
2022/12/11 02:34:58;;;;;;;67.70;23.00;;;0.50;99.90;;;;;;4920717;29;20043;-80
2022/12/11 02:37:28;;;;;;;75.15;24.85;;;0.60;99.90;;;;;;4916391;29;20044;-79
2022/12/11 02:39:55;;;;;;;68.18;23.45;;;0.60;99.90;;;;;;4913709;29;20036;-79
2022/12/11 02:42:24;;;;;;;78.47;24.90;;;0.60;99.90;;;;;;4914508;29;20086;-80
2022/12/11 02:44:51;;;;;;;77.43;23.55;;;0.60;99.90;;;;;;4902845;29;20083;-78
2022/12/11 02:47:20;;;;;;;71.07;25.10;;;0.50;99.90;;;;;;4914557;29;20036;-80
2022/12/11 02:49:48;;;;;;;69.13;23.88;;;0.50;99.90;;;;;;4915062;29;20465;-80
2022/12/11 02:52:17;;;;;;;79.90;24.55;;;0.50;99.90;;;;;;4897708;29;20048;-79
2022/12/11 02:54:45;;;;;;;78.25;25.00;;;0.60;99.90;;;;;;4912729;29;20036;-79
2022/12/11 02:57:28;;;;;;;81.00;24.35;;;0.50;99.90;;;;;;4912903;29;20043;-79
2022/12/11 02:59:54;;;;;;;73.65;24.60;;;0.60;99.90;;;;;;4918738;29;20122;-80
2022/12/11 03:02:20;;;;;;;81.95;24.48;;;0.50;99.90;;;;;;4916049;29;20130;-80
2022/12/11 03:04:46;;;;;;;69.28;23.52;;;0.60;99.90;;;;;;4916191;29;20496;-80
2022/12/11 03:07:22;;;;;;;79.40;24.27;;;0.50;99.90;;;;;;4916168;29;20498;-80
2022/12/11 03:09:48;;;;;;;75.30;25.05;;;0.60;99.90;;;;;;4915762;29;20043;-79
2022/12/11 03:12:19;;;;;;;68.88;25.15;;;0.60;99.90;;;;;;4903487;29;20100;-80
2022/12/11 03:14:46;;;;;;;77.53;24.88;;;0.60;99.90;;;;;;4914746;29;20044;-80
2022/12/11 03:17:26;;;;;;;73.57;25.98;;;0.60;99.90;;;;;;4912744;29;20066;-80
2022/12/11 03:20:06;;;;;;;76.07;23.73;;;0.60;99.90;;;;;;4912778;29;20067;-80
2022/12/11 03:22:46;;;;;;;84.22;25.50;;;0.70;99.90;;;;;;4914465;29;20058;-80
2022/12/11 03:25:18;;;;;;;73.88;25.05;;;0.60;99.90;;;;;;4897286;29;20076;-79
2022/12/11 03:27:55;;;;;;;75.75;24.63;;;0.60;99.90;;;;;;4930588;29;20050;-80
2022/12/11 03:30:22;;;;;;;69.40;23.63;;;0.60;99.90;;;;;;4903461;29;20044;-80
2022/12/11 03:33:08;;;;;;;63.92;24.73;;;0.60;99.90;;;;;;4928513;29;20819;-79
2022/12/11 03:35:34;;;;;;;;;;;0.70;99.90;;;;;;4900922;29;20062;-79
2022/12/11 03:38:04;;;;;;;71.37;23.37;;;0.70;99.90;;;;;;4917805;29;19922;-78
2022/12/11 03:40:33;;;;;;;70.57;26.08;;;0.60;99.90;;;;;;4912053;29;20067;-78
2022/12/11 03:42:59;;;;;;;78.43;25.83;;;0.70;99.90;;;;;;4912642;29;20177;-80
2022/12/11 03:45:27;;;;;;;79.30;25.27;;;0.70;99.90;;;;;;4897110;29;20048;-80
2022/12/11 03:47:55;;;;;;;72.93;25.70;;;0.70;99.90;;;;;;4912103;29;20043;-78
2022/12/11 03:50:21;;;;;;;75.07;25.27;;;0.70;99.90;;;;;;4912044;29;20126;-80
2022/12/11 03:52:47;;;;;;;71.85;25.00;;;0.70;99.90;;;;;;4914257;29;20047;-80
2022/12/11 03:55:16;;;;;;;72.53;25.58;;;0.70;99.90;;;;;;4913395;29;20048;-80
2022/12/11 03:57:42;;;;;;;76.50;26.33;;;0.80;99.90;;;;;;4916364;29;20040;-80
2022/12/11 04:00:11;;;;;;;73.35;25.67;;;0.70;99.90;;;;;;4927896;29;20127;-80
2022/12/11 04:02:37;;;;;;;75.32;25.40;;;0.70;99.90;;;;;;4914072;29;20407;-79
2022/12/11 04:05:03;;;;;;;72.35;25.40;;;0.80;99.90;;;;;;4911974;29;20048;-81
2022/12/11 04:07:30;;;;;;;78.78;26.58;;;0.70;99.90;;;;;;4910625;29;20105;-80
2022/12/11 04:09:55;;;;;;;83.35;26.33;;;0.70;99.90;;;;;;4911412;29;20088;-80
2022/12/11 04:12:21;;;;;;;76.50;26.23;;;0.80;99.90;;;;;;4913386;29;20039;-80
2022/12/11 04:15:02;;;;;;;72.25;26.27;;;0.70;99.90;;;;;;4914104;29;20036;-80
2022/12/11 04:26:08;;;;;;;81.88;27.10;;;0.70;99.90;;;;;;4912543;29;20470;-79
2022/12/11 04:28:34;;;;;;;73.97;26.65;;;0.80;99.90;;;;;;4897192;29;20059;-79
2022/12/11 04:31:00;;;;;;;75.57;24.80;;;0.80;99.90;;;;;;4926614;29;20058;-80
2022/12/11 04:33:26;;;;;;;81.45;25.05;;;0.80;99.90;;;;;;4913812;29;20515;-79
2022/12/11 04:35:51;;;;;;;80.50;26.27;;;0.70;99.90;;;;;;4902646;29;20054;-80
2022/12/11 04:38:17;;;;;;;67.57;24.27;;;0.80;99.90;;;;;;4912063;29;20039;-79
2022/12/11 04:40:42;;;;;;;67.43;24.88;;;0.80;99.90;;;;;;4897631;29;20043;-80
2022/12/11 04:43:08;;;;;;;85.18;26.75;;;0.80;99.90;;;;;;4912550;29;20051;-81
2022/12/11 04:45:34;;;;;;;62.47;24.60;;;0.80;99.90;;;;;;4896616;29;20032;-81
2022/12/11 04:47:59;;;;;;;62.15;23.45;;;0.70;99.90;;;;;;4915789;29;20075;-80
2022/12/11 04:50:25;;;;;;;57.47;23.90;;;0.70;99.90;;;;;;4911883;29;20556;-78
2022/12/11 04:52:54;;;;;;;66.70;24.08;;;0.70;99.90;;;;;;4927878;29;20056;-80
2022/12/11 04:55:19;;;;;;;65.22;23.02;;;0.80;99.90;;;;;;4896477;29;20502;-81
2022/12/11 04:57:45;;;;;;;54.78;22.55;;;0.70;99.90;;;;;;4899358;29;20115;-79
2022/12/11 05:00:12;;;;;;;66.35;23.38;;;0.80;99.90;;;;;;4928010;29;20038;-80
2022/12/11 05:02:39;;;;;;;56.42;23.48;;;0.80;99.90;;;;;;4915179;29;20065;-80
2022/12/11 05:05:06;;;;;;;64.65;23.63;;;0.80;99.90;;;;;;4892751;29;20055;-81
2022/12/11 05:07:32;;;;;;;63.22;22.80;;;0.80;99.90;;;;;;4927786;29;20048;-79
2022/12/11 05:09:57;;;;;;;59.30;22.83;;;0.80;99.90;;;;;;4897864;29;20510;-80
2022/12/11 05:12:23;;;;;;;67.55;24.48;;;0.80;99.90;;;;;;4899605;29;20047;-80
2022/12/11 05:14:53;;;;;;;62.90;26.35;;;0.80;99.90;;;;;;4911716;29;20107;-80
2022/12/11 05:17:20;;;;;;;65.75;24.15;;;0.90;99.90;;;;;;4915491;29;20040;-81
2022/12/11 05:19:50;;;;;;;76.35;25.58;;;0.80;99.90;;;;;;4914151;29;20435;-81
2022/12/11 05:22:16;;;;;;;72.22;26.30;;;0.80;99.90;;;;;;4916021;29;20517;-80
2022/12/11 05:24:42;;;;;;;65.95;25.40;;;0.80;99.90;;;;;;4897660;29;20055;-80
2022/12/11 05:27:07;;;;;;;73.15;24.45;;;0.90;99.90;;;;;;4910884;29;20040;-78
2022/12/11 05:29:33;;;;;;;77.50;24.98;;;0.80;99.90;;;;;;4901275;29;20047;-80
2022/12/11 05:31:58;;;;;;;69.45;24.30;;;0.80;99.90;;;;;;4901777;29;20047;-79
2022/12/11 05:34:24;;;;;;;68.05;25.80;;;0.80;99.90;;;;;;4926942;29;20122;-80
2022/12/11 05:36:49;;;;;;;64.57;25.50;;;1.70;99.90;;;;;;4908690;29;20043;-78
2022/12/11 05:39:15;;;;;;;71.25;26.27;;;0.90;99.90;;;;;;4912795;29;20044;-80
2022/12/11 05:41:41;;;;;;;73.53;26.60;;;0.80;99.90;;;;;;4900502;29;20051;-80
2022/12/11 05:44:08;;;;;;;73.43;25.58;;;0.90;99.90;;;;;;4895491;29;20044;-79
2022/12/11 05:46:34;;;;;;;78.75;26.10;;;0.90;99.90;;;;;;4895706;29;20130;-80
2022/12/11 05:49:00;;;;;;;81.35;26.08;;;0.80;99.90;;;;;;4898966;29;20138;-80
2022/12/11 05:51:28;;;;;;;74.60;25.98;;;0.80;99.90;;;;;;4895094;29;20051;-80
2022/12/11 05:53:55;;;;;;;76.72;24.92;;;0.80;99.90;;;;;;4913020;29;20044;-80
2022/12/11 05:56:30;;;;;;;84.50;26.60;;;0.90;99.90;;;;;;4910985;29;20064;-80
2022/12/11 05:58:58;;;;;;;66.20;24.77;;;0.80;99.90;;;;;;4915733;29;20059;-80
2022/12/11 06:01:27;;;;;;;70.82;25.05;;;0.80;99.90;;;;;;4916797;29;20087;-79
2022/12/11 06:03:54;;;;;;;82.15;25.00;;;0.90;99.90;;;;;;4910075;29;20078;-80
2022/12/11 06:06:20;;;;;;;65.70;23.75;;;0.90;99.90;;;;;;4910225;29;20043;-80
2022/12/11 06:08:48;;;;;;;83.30;26.10;;;0.90;99.90;;;;;;4899118;29;20044;-80
2022/12/11 06:11:13;;;;;;;81.45;26.73;;;0.90;99.90;;;;;;4927782;29;20170;-79
2022/12/11 06:13:39;;;;;;;70.50;24.67;;;0.90;99.90;;;;;;4909411;29;20105;-80
2022/12/11 06:16:07;;;;;;;67.47;22.85;;;0.90;99.90;;;;;;4909988;29;20035;-79
2022/12/11 06:18:37;;;;;;;71.57;24.98;;;0.90;99.90;;;;;;4911270;29;20036;-80
2022/12/11 06:21:20;;;;;;;62.88;23.33;;;0.90;99.90;;;;;;4907680;29;20044;-80
2022/12/11 06:23:46;;;;;;;64.28;23.92;;;0.90;99.90;;;;;;4896102;29;20051;-80
2022/12/11 06:26:12;;;;;;;66.70;23.77;;;0.90;99.90;;;;;;4912215;29;20047;-78
2022/12/11 06:28:38;;;;;;;70.47;23.48;;;0.90;99.90;;;;;;4908491;29;20040;-77
2022/12/11 06:31:04;;;;;;;65.82;22.67;;;0.90;99.90;;;;;;4910731;29;20032;-80
2022/12/11 06:33:30;;;;;;;71.80;25.00;;;0.90;99.90;;;;;;4910728;29;20055;-80
2022/12/11 06:35:59;;;;;;;66.18;25.02;;;0.90;99.90;;;;;;4910844;29;20048;-80
2022/12/11 06:38:25;;;;;;;67.20;24.90;;;0.90;99.90;;;;;;4893929;29;20123;-80
2022/12/11 06:40:59;;;;;;;65.28;23.10;;;1.00;99.90;;;;;;4907683;29;20129;-79
2022/12/11 06:43:24;;;;;;;69.82;24.00;;;1.00;99.90;;;;;;4899380;29;20808;-78
2022/12/11 06:45:50;;;;;;;72.00;24.83;;;0.90;99.90;;;;;;4909657;29;20043;-80
2022/12/11 06:48:17;;;;;;;75.15;26.00;;;1.00;99.90;;;;;;4898302;29;20042;-80
2022/12/11 06:50:42;;;;;;;71.82;25.33;;;1.00;99.90;;;;;;4895977;29;20040;-81
2022/12/11 06:53:10;;;;;;;80.30;25.73;;;1.00;99.90;;;;;;4895409;29;20043;-81
2022/12/11 06:55:36;;;;;;;74.70;24.83;;;0.90;99.90;;;;;;4908416;29;20586;-82
2022/12/11 06:58:02;;;;;;;68.47;24.70;;;0.90;99.90;;;;;;4905837;29;20481;-81
2022/12/11 07:00:27;;;;;;;66.00;25.13;;;0.90;99.90;;;;;;4911008;29;20083;-79
2022/12/11 07:02:53;;;;;;;65.70;23.98;;;0.90;99.90;;;;;;4896927;29;20037;-82
2022/12/11 07:05:18;;;;;;;67.57;24.73;;;0.90;99.90;;;;;;4895196;29;20050;-82
2022/12/11 07:07:44;;;;;;;73.20;25.77;;;1.00;99.90;;;;;;4891987;29;20052;-81
2022/12/11 07:10:10;;;;;;;78.32;25.95;;;0.90;99.90;;;;;;4928494;29;20058;-80
2022/12/11 07:12:36;;;;;;;68.25;24.42;;;1.00;99.90;;;;;;4910849;29;20066;-79
2022/12/11 07:15:03;;;;;;;68.28;25.33;;;1.00;99.90;;;;;;4896231;29;20055;-82
2022/12/11 07:17:29;;;;;;;63.15;23.55;;;0.90;99.90;;;;;;4909077;29;20122;-80
2022/12/11 07:19:55;;;;;;;63.70;23.27;;;1.00;99.90;;;;;;4900024;29;20031;-80
2022/12/11 07:22:21;;;;;;;81.13;26.42;;;1.00;99.90;;;;;;4914290;29;20118;-82
2022/12/11 07:24:47;;;;;;;70.10;24.63;;;0.90;99.90;;;;;;4908505;29;20039;-81
2022/12/11 07:27:42;;;;;;;71.47;25.88;;;1.00;99.90;;;;;;4909938;29;20051;-83
2022/12/11 07:31:14;;;;;;;73.43;25.27;;;1.10;99.90;;;;;;4924673;29;20058;-83
2022/12/11 07:38:22;;;;;;;69.40;24.42;;;0.90;99.90;;;;;;4926982;29;20038;-85
2022/12/11 07:40:48;;;;;;;66.65;24.85;;;0.90;99.90;;;;;;4905325;29;20048;-83
2022/12/11 07:43:13;;;;;;;77.10;27.38;;;0.90;99.90;;;;;;4892230;29;20499;-81
2022/12/11 07:45:39;;;;;;;77.00;24.83;;;1.00;99.90;;;;;;4892450;29;20094;-81
2022/12/11 07:48:05;;;;;;;84.20;25.58;;;0.90;99.90;;;;;;4894868;29;20051;-87
2022/12/11 07:50:30;;;;;;;80.65;25.17;;;0.90;99.90;;;;;;4907190;29;20052;-83
2022/12/11 07:52:56;;;;;;;78.22;26.25;;;0.80;99.90;;;;;;4910673;29;20499;-85
2022/12/11 07:55:37;;;;;;;85.03;27.50;;;0.90;99.90;;;;;;4908858;29;20040;-84
2022/12/11 07:58:02;;;;;;;107.05;27.65;;;0.90;99.90;;;;;;4905859;29;20055;-83
2022/12/11 08:00:28;;;;;;;92.50;26.85;;;0.80;99.90;;;;;;4909015;29;20057;-83
2022/12/11 08:02:57;;;;;;;79.88;25.98;;;0.80;99.90;;;;;;4887943;29;20558;-85
2022/12/11 08:05:25;;;;;;;80.57;27.02;;;1.20;99.90;;;;;;4908071;29;20047;-85
2022/12/11 08:07:50;;;;;;;85.28;25.92;;;0.80;99.90;;;;;;4890418;29;20073;-84
2022/12/11 08:10:16;;;;;;;73.03;26.02;;;0.80;99.90;;;;;;4904415;29;20047;-83
2022/12/11 08:12:42;;;;;;;72.82;25.85;;;0.90;99.90;;;;;;4892055;29;20040;-84
2022/12/11 08:15:09;;;;;;;90.10;27.08;;;0.90;99.90;;;;;;4891581;29;20044;-85
2022/12/11 08:17:35;;;;;;;74.10;26.08;;;0.90;99.90;;;;;;4896441;28;20430;-85
2022/12/11 08:20:01;;;;;;;68.75;24.95;;;0.20;99.90;;;;;;4892957;29;20047;-84
2022/12/11 08:22:27;;;;;;;74.32;25.73;;;1.10;99.90;;;;;;4893899;29;20031;-84
2022/12/11 08:28:06;;;;;;;68.32;26.25;;;1.00;99.90;;;;;;4920441;29;20051;-84
2022/12/11 08:30:47;;;;;;;67.75;24.75;;;1.00;99.90;;;;;;4889404;29;20047;-86
2022/12/11 08:33:27;;;;;;;75.22;26.30;;;1.30;99.90;;;;;;4907920;29;20039;-83
2022/12/11 08:36:04;;;;;;;66.47;24.52;;;1.00;99.90;;;;;;4892392;29;20055;-85
2022/12/11 08:38:30;;;;;;;67.70;24.85;;;1.40;99.90;;;;;;4903712;29;20050;-82
2022/12/11 08:40:56;;;;;;;83.18;26.63;;;1.00;99.90;;;;;;4922720;29;20443;-83
2022/12/11 08:43:21;;;;;;;76.70;25.60;;;1.00;99.90;;;;;;4892152;29;20043;-83
2022/12/11 08:45:47;;;;;;;77.18;26.02;;;1.10;99.90;;;;;;4896604;29;20136;-83
2022/12/11 08:48:54;;;;;;;61.58;25.35;;;1.00;99.90;;;;;;4904442;29;20047;-87
2022/12/11 08:51:22;;;;;;;67.57;25.45;;;1.10;99.90;;;;;;4905749;29;20047;-81
2022/12/11 08:53:49;;;;;;;63.78;25.27;;;1.00;99.90;;;;;;4911637;29;20036;-82
2022/12/11 08:56:19;;;;;;;70.18;25.98;;;1.10;99.90;;;;;;4892626;29;20048;-81
2022/12/11 08:58:46;;;;;;;72.28;26.63;;;1.10;99.90;;;;;;4898858;29;20506;-82
2022/12/11 09:01:20;;;;;;;73.47;27.10;;;1.70;99.90;;;;;;4926546;29;20086;-80
2022/12/11 09:03:46;;;;;;;60.50;24.92;;;1.10;99.90;;;;;;4911756;29;20059;-81
2022/12/11 09:06:15;;;;;;;73.22;27.33;;;1.00;99.90;;;;;;4893363;29;20035;-81
2022/12/11 09:08:41;;;;;;;63.90;26.42;;;1.10;99.90;;;;;;4912235;29;20048;-79
2022/12/11 09:11:10;;;;;;;59.22;24.92;;;1.10;99.90;;;;;;4912545;29;20174;-82
2022/12/11 09:13:35;;;;;;;64.57;25.27;;;1.20;99.90;;;;;;4899509;29;20958;-82
2022/12/11 09:16:06;;;;;;;71.97;27.08;;;1.10;99.90;;;;;;4897610;29;20107;-82
2022/12/11 09:18:32;;;;;;;62.65;25.10;;;1.20;99.90;;;;;;4907690;29;20583;-83
2022/12/11 09:21:03;;;;;;;62.80;25.10;;;1.10;99.90;;;;;;4896465;29;20040;-81
2022/12/11 09:23:29;;;;;;;63.22;25.17;;;1.20;99.90;;;;;;4908108;29;20043;-81
2022/12/11 09:25:54;;;;;;;60.30;26.65;;;1.20;99.90;;;;;;4909408;29;20597;-81
2022/12/11 09:28:21;;;;;;;68.43;27.27;;;1.20;99.90;;;;;;4914300;29;20095;-81
2022/12/11 09:30:46;;;;;;;73.72;26.52;;;1.20;99.90;;;;;;4911435;29;20039;-81
2022/12/11 09:33:12;;;;;;;69.45;25.85;;;1.20;99.90;;;;;;4913661;29;20046;-81
2022/12/11 09:35:37;;;;;;;71.13;25.58;;;1.20;99.90;;;;;;4914161;29;20134;-81
2022/12/11 09:38:03;;;;;;;64.40;25.60;;;1.20;99.90;;;;;;4907095;29;20035;-81
2022/12/11 09:40:30;;;;;;;64.45;25.15;;;1.20;99.90;;;;;;4915522;29;20047;-81
2022/12/11 09:42:59;;;;;;;58.22;25.75;;;1.10;99.90;;;;;;4893647;29;20050;-81
2022/12/11 09:45:25;;;;;;;63.22;24.27;;;1.20;99.90;;;;;;4909468;29;20658;-81
2022/12/11 09:47:54;;;;;;;69.82;25.60;;;1.20;99.90;;;;;;4890961;29;20136;-81
2022/12/11 09:50:27;;;;;;;63.28;25.98;;;1.20;99.90;;;;;;4899712;29;20043;-81
2022/12/11 09:53:15;;;;;;;64.50;24.35;;;1.20;99.90;;;;;;4897487;29;20043;-80
2022/12/11 09:55:50;;;;;;;63.80;24.80;;;1.20;99.90;;;;;;4909628;29;20051;-81
2022/12/11 09:58:25;;;;;;;64.00;26.10;;;1.20;99.90;;;;;;4913758;29;20044;-81
2022/12/11 10:01:14;;;;;;;63.95;25.55;;;1.20;99.90;;;;;;4914254;29;20074;-81
2022/12/11 10:04:08;;;;;;;62.45;25.10;;;1.20;99.90;;;;;;4911759;29;20050;-81
2022/12/11 10:06:42;;;;;;;63.60;24.88;;;1.20;99.90;;;;;;4898541;29;20036;-81
2022/12/11 10:09:49;;;;;;;55.95;23.75;;;1.30;99.90;;;;;;4909863;29;20060;-81
2022/12/11 10:12:38;;;;;;;62.22;25.27;;;1.30;99.90;;;;;;4900800;29;20127;-81
2022/12/11 10:15:26;;;;;;;68.22;24.80;;;1.30;99.90;;;;;;4922295;29;20100;-81
2022/12/11 10:17:55;;;;;;;60.20;25.58;;;1.30;99.90;;;;;;4906383;29;20079;-81
2022/12/11 10:20:38;;;;;;;63.22;24.63;;;1.30;99.90;;;;;;4906557;29;20040;-81
2022/12/11 10:23:07;;;;;;;58.63;23.42;;;1.30;99.90;;;;;;4900100;29;20065;-82
2022/12/11 10:25:40;;;;;;;64.60;26.55;;;1.30;99.90;;;;;;4927062;29;20051;-81
2022/12/11 10:28:24;;;;;;;57.67;24.77;;;1.20;99.90;;;;;;4925833;29;20086;-80
2022/12/11 10:31:30;;;;;;;69.30;27.17;;;1.30;99.90;;;;;;4900159;29;20606;-84
2022/12/11 10:34:23;;;;;;;63.40;25.80;;;2.30;99.90;;;;;;4894234;29;20050;-84
2022/12/11 10:36:49;;;;;;;66.03;23.52;;;1.30;99.90;;;;;;4896281;29;20096;-81
2022/12/11 10:39:17;;;;;;;59.25;24.60;;;1.30;99.90;;;;;;4900009;29;20043;-81
2022/12/11 10:41:48;;;;;;;60.80;24.38;;;1.30;99.90;;;;;;4899883;29;20043;-81
2022/12/11 10:44:16;;;;;;;66.45;26.00;;;1.30;99.90;;;;;;4899656;29;20110;-81
2022/12/11 10:46:42;;;;;;;63.05;24.52;;;1.30;99.90;;;;;;4918785;29;20066;-81
2022/12/11 10:49:29;;;;;;;61.22;24.75;;;1.30;99.90;;;;;;4901712;29;20518;-81
2022/12/11 10:51:56;;;;;;;55.90;24.80;;;1.30;99.90;;;;;;4921451;29;20082;-81
2022/12/11 10:54:32;;;;;;;74.25;26.25;;;1.30;99.90;;;;;;4918297;29;20043;-81
2022/12/11 10:56:59;;;;;;;;;;;1.30;99.90;;;;;;4915765;29;20076;-80
2022/12/11 10:59:29;;;;;;;69.90;26.00;;;1.30;99.90;;;;;;4932955;29;19927;-81
2022/12/11 11:01:56;;;;;;;59.88;23.08;;;1.30;99.90;;;;;;4906747;29;20042;-81
2022/12/11 11:04:43;;;;;;;61.95;24.88;;;1.30;99.90;;;;;;4902148;29;20044;-80
2022/12/11 11:07:19;;;;;;;59.70;25.02;;;1.30;99.90;;;;;;4917120;29;20051;-81
2022/12/11 11:09:45;;;;;;;64.63;24.60;;;1.30;99.90;;;;;;4903098;29;20051;-80
2022/12/11 11:12:26;;;;;;;63.13;24.30;;;1.30;99.90;;;;;;4916011;29;20043;-81
2022/12/11 11:15:01;;;;;;;68.25;25.35;;;1.30;99.90;;;;;;4904806;29;20493;-80
2022/12/11 11:17:27;;;;;;;63.58;24.92;;;1.40;99.90;;;;;;4930952;29;20130;-80
2022/12/11 11:19:54;;;;;;;66.40;25.63;;;1.30;99.90;;;;;;4903144;29;20114;-81
2022/12/11 11:22:20;;;;;;;62.72;23.77;;;1.30;99.90;;;;;;4912212;29;20046;-80
2022/12/11 11:24:54;;;;;;;64.97;25.73;;;1.30;99.90;;;;;;4919583;29;20043;-80
2022/12/11 11:27:28;;;;;;;62.13;23.90;;;1.30;99.90;;;;;;4912820;29;20063;-80
2022/12/11 11:30:01;;;;;;;71.30;27.10;;;1.30;99.90;;;;;;4919882;29;20130;-80
2022/12/11 11:32:35;;;;;;;60.63;25.50;;;1.30;99.90;;;;;;4913596;29;20043;-81
2022/12/11 11:35:12;;;;;;;63.40;24.77;;;1.40;99.90;;;;;;4901708;29;20040;-80
2022/12/11 11:37:45;;;;;;;60.88;24.92;;;1.40;99.90;;;;;;4912876;29;20031;-81
2022/12/11 11:40:29;;;;;;;68.50;27.48;;;1.40;99.90;;;;;;4917854;29;20071;-81
2022/12/11 11:43:06;;;;;;;62.00;25.13;;;1.30;99.90;;;;;;4904152;29;20031;-80
2022/12/11 11:45:55;;;;;;;73.35;24.63;;;1.40;99.90;;;;;;4914434;29;20104;-81
2022/12/11 11:48:27;;;;;;;72.93;25.60;;;1.40;99.90;;;;;;4904934;29;20134;-80
2022/12/11 11:50:53;;;;;;;69.05;26.17;;;1.40;99.90;;;;;;4903726;29;20524;-81
2022/12/11 11:53:30;;;;;;;72.00;25.73;;;1.40;99.90;;;;;;4912455;29;20036;-79
2022/12/11 11:56:02;;;;;;;65.07;26.27;;;1.40;99.90;;;;;;4918446;29;20475;-81
2022/12/11 11:58:39;;;;;;;61.00;25.25;;;1.50;99.90;;;;;;4898798;29;20046;-80
2022/12/11 12:01:16;;;;;;;65.90;25.80;;;1.40;99.90;;;;;;4932339;29;20126;-80
2022/12/11 12:03:42;;;;;;;64.10;24.55;;;1.40;99.90;;;;;;4926021;29;20054;-80
2022/12/11 12:06:35;;;;;;;59.55;25.35;;;1.50;99.90;;;;;;4914455;29;20127;-81
2022/12/11 12:09:04;;;;;;;63.53;24.50;;;1.50;99.90;;;;;;4911390;29;20094;-81
2022/12/11 12:11:29;;;;;;;70.75;26.02;;;1.40;99.90;;;;;;4912338;29;20494;-80
2022/12/11 12:14:32;;;;;;;64.57;26.80;;;1.50;99.90;;;;;;4896513;29;20134;-80
2022/12/11 12:17:37;;;;;;;60.97;24.55;;;1.50;99.90;;;;;;4935026;29;20083;-81
2022/12/11 12:20:05;;;;;;;61.70;25.67;;;1.50;99.90;;;;;;4913951;29;20051;-81
2022/12/11 12:22:59;;;;;;;63.30;25.65;;;1.50;99.90;;;;;;4914171;29;20122;-80
2022/12/11 12:25:24;;;;;;;61.90;24.80;;;1.60;99.90;;;;;;4915378;29;20094;-81
2022/12/11 12:28:13;;;;;;;60.97;25.35;;;1.50;99.90;;;;;;4903420;29;20051;-80
2022/12/11 12:30:53;;;;;;;59.05;24.88;;;1.60;99.90;;;;;;4914917;29;20138;-81
2022/12/11 12:33:38;;;;;;;62.05;26.35;;;1.50;99.90;;;;;;4900264;29;20048;-81
2022/12/11 12:36:16;;;;;;;65.93;25.83;;;1.50;99.90;;;;;;4901906;29;20083;-80
2022/12/11 12:39:11;;;;;;;54.58;25.52;;;1.50;99.90;;;;;;4902213;29;20593;-80
2022/12/11 12:42:04;;;;;;;59.92;25.17;;;1.40;99.90;;;;;;4920719;29;20094;-81
2022/12/11 12:44:40;;;;;;;65.43;27.65;;;1.50;99.90;;;;;;4915671;29;20058;-80
2022/12/11 12:47:13;;;;;;;51.55;23.88;;;1.50;99.90;;;;;;4910663;29;20126;-80
2022/12/11 12:49:42;;;;;;;66.53;26.88;;;1.50;99.90;;;;;;4914611;29;20040;-79
2022/12/11 12:52:16;;;;;;;65.38;28.10;;;1.50;99.90;;;;;;4916217;29;20530;-80
2022/12/11 12:55:12;;;;;;;61.95;27.00;;;1.50;99.90;;;;;;4911941;29;20165;-80
2022/12/11 12:57:32;;;;;;;69.25;27.48;;;1.40;99.90;;;;;;4929596;29;20047;-80
2022/12/11 12:59:57;;;;;;;62.78;28.67;;;1.40;99.90;;;;;;4928993;29;20487;-81
2022/12/11 13:02:23;;;;;;;57.80;25.35;;;1.40;99.90;;;;;;4915442;29;20039;-80
2022/12/11 13:04:59;;;;;;;64.57;26.52;;;1.50;99.90;;;;;;4894731;29;20079;-82
2022/12/11 13:07:28;;;;;;;;;;;1.50;99.90;;;;;;4897234;29;20055;-81
2022/12/11 13:10:02;;;;;;;65.30;27.42;;;1.50;99.90;;;;;;4898340;29;19918;-81
2022/12/11 13:12:54;;;;;;;62.00;27.98;;;1.40;99.90;;;;;;4911739;29;20079;-81
2022/12/11 13:15:34;;;;;;;60.60;27.45;;;1.50;99.90;;;;;;4901655;29;20111;-81